createdAt,value
2018-06-27T00:01:20.361Z,19.74
2018-06-27T00:04:02.488Z,19.79
2018-06-27T00:15:26.103Z,20.31
2018-06-27T00:20:55.920Z,20.33
2018-06-27T00:26:36.525Z,20.06
2018-06-27T00:31:52.204Z,19.68
2018-06-27T00:34:21.960Z,19.53
2018-06-27T00:36:51.618Z,19.54
2018-06-27T00:39:21.240Z,19.80
2018-06-27T00:41:51.171Z,19.98
2018-06-27T00:44:21.323Z,19.58
2018-06-27T00:46:51.188Z,19.53
2018-06-27T00:49:21.226Z,19.51
2018-06-27T00:51:51.008Z,19.55
2018-06-27T00:54:20.705Z,19.73
2018-06-27T00:56:50.406Z,19.62
2018-06-27T00:59:19.999Z,19.54
2018-06-27T01:01:49.709Z,19.51
2018-06-27T01:04:19.424Z,19.49
2018-06-27T01:06:49.063Z,19.54
2018-06-27T01:09:18.745Z,20.02
2018-06-27T01:11:48.534Z,19.95
2018-06-27T01:14:18.369Z,19.75
2018-06-27T01:16:48.371Z,19.72
2018-06-27T01:19:18.357Z,19.63
2018-06-27T01:21:49.234Z,19.70
2018-06-27T01:24:19.251Z,19.58
2018-06-27T01:26:48.964Z,19.48
2018-06-27T01:29:18.992Z,19.53
2018-06-27T01:31:49.289Z,19.13
2018-06-27T01:34:19.132Z,18.98
2018-06-27T01:36:49.012Z,19.10
2018-06-27T01:39:19.100Z,19.23
2018-06-27T01:41:49.129Z,19.44
2018-06-27T01:44:19.101Z,19.41
2018-06-27T01:46:49.193Z,19.48
2018-06-27T01:49:19.462Z,19.17
2018-06-27T01:51:49.157Z,19.05
2018-06-27T01:54:19.266Z,19.22
2018-06-27T01:56:49.233Z,19.28
2018-06-27T01:59:19.435Z,19.32
2018-06-27T02:01:49.153Z,19.07
2018-06-27T02:04:19.178Z,18.41
2018-06-27T02:06:48.849Z,18.44
2018-06-27T02:09:18.585Z,18.56
2018-06-27T02:11:48.282Z,19.00
2018-06-27T02:14:17.895Z,19.10
2018-06-27T02:16:47.656Z,19.21
2018-06-27T02:19:17.326Z,19.15
2018-06-27T02:21:47.065Z,18.69
2018-06-27T02:24:16.808Z,18.87
2018-06-27T02:26:46.505Z,18.85
2018-06-27T02:29:16.212Z,18.54
2018-06-27T02:31:45.936Z,18.42
2018-06-27T02:34:15.934Z,18.48
2018-06-27T02:36:45.592Z,18.25
2018-06-27T02:39:15.340Z,18.28
2018-06-27T02:41:44.979Z,18.63
2018-06-27T02:44:14.608Z,18.75
2018-06-27T02:46:44.312Z,18.74
2018-06-27T02:49:14.001Z,18.85
2018-06-27T02:51:43.668Z,18.93
2018-06-27T02:54:13.397Z,18.85
2018-06-27T02:56:43.103Z,18.93
2018-06-27T02:59:13.233Z,18.72
2018-06-27T03:01:43.040Z,18.60
2018-06-27T03:04:13.020Z,18.30
2018-06-27T03:06:42.840Z,18.29
2018-06-27T03:09:12.617Z,18.40
2018-06-27T03:11:42.311Z,18.52
2018-06-27T03:14:12.015Z,18.61
2018-06-27T03:16:41.732Z,18.59
2018-06-27T03:19:11.376Z,18.56
2018-06-27T03:21:44.928Z,18.45
2018-06-27T03:24:14.619Z,18.55
2018-06-27T03:26:44.255Z,18.58
2018-06-27T03:29:13.908Z,18.94
2018-06-27T03:31:43.596Z,18.91
2018-06-27T03:34:13.155Z,18.95
2018-06-27T03:36:43.036Z,18.93
2018-06-27T03:39:12.692Z,18.65
2018-06-27T03:41:42.559Z,18.27
2018-06-27T03:44:12.248Z,18.40
2018-06-27T03:46:42.101Z,18.51
2018-06-27T03:49:15.668Z,18.46
2018-06-27T03:51:45.269Z,18.67
2018-06-27T03:54:14.952Z,18.72
2018-06-27T03:56:44.688Z,18.63
2018-06-27T03:59:14.333Z,18.69
2018-06-27T04:01:44.147Z,18.78
2018-06-27T04:04:13.779Z,19.07
2018-06-27T04:06:43.396Z,19.05
2018-06-27T04:09:13.304Z,19.26
2018-06-27T04:11:43.161Z,19.01
2018-06-27T04:14:12.760Z,19.05
2018-06-27T04:16:42.380Z,18.96
2018-06-27T04:19:12.040Z,19.19
2018-06-27T04:21:41.840Z,19.94
2018-06-27T04:24:11.553Z,20.20
2018-06-27T04:26:41.317Z,20.38
2018-06-27T04:29:10.997Z,20.50
2018-06-27T04:31:40.595Z,20.51
2018-06-27T04:34:10.251Z,20.58
2018-06-27T04:36:39.882Z,20.51
2018-06-27T04:39:10.879Z,20.63
2018-06-27T04:41:40.907Z,20.90
2018-06-27T04:44:10.765Z,21.18
2018-06-27T04:46:40.409Z,21.35
2018-06-27T04:49:10.294Z,21.29
2018-06-27T04:51:41.176Z,21.37
2018-06-27T04:54:10.837Z,21.53
2018-06-27T04:56:40.496Z,21.28
2018-06-27T04:59:10.269Z,21.23
2018-06-27T05:01:41.739Z,21.11
2018-06-27T05:04:13.135Z,21.26
2018-06-27T05:06:44.096Z,21.19
2018-06-27T05:09:17.281Z,20.87
2018-06-27T05:11:47.058Z,20.79
2018-06-27T05:14:22.049Z,20.76
2018-06-27T05:16:52.330Z,20.69
2018-06-27T05:19:25.162Z,20.60
2018-06-27T05:21:55.340Z,20.97
2018-06-27T05:24:26.219Z,20.97
2018-06-27T05:26:56.672Z,20.99
2018-06-27T05:29:26.948Z,21.07
2018-06-27T05:31:57.196Z,21.34
2018-06-27T05:34:29.447Z,21.57
2018-06-27T05:37:02.176Z,22.25
2018-06-27T05:39:33.951Z,22.30
2018-06-27T05:42:04.864Z,21.85
2018-06-27T05:44:36.283Z,21.89
2018-06-27T05:47:06.193Z,22.52
2018-06-27T05:49:35.856Z,22.88
2018-06-27T05:52:06.403Z,23.24
2018-06-27T05:54:37.472Z,22.79
2018-06-27T05:57:08.353Z,22.41
2018-06-27T05:59:38.945Z,21.92
2018-06-27T06:02:08.611Z,21.87
2018-06-27T06:04:40.573Z,22.14
2018-06-27T06:07:13.006Z,22.51
2018-06-27T06:09:44.172Z,22.46
2018-06-27T06:12:13.761Z,22.13
2018-06-27T06:14:45.645Z,21.66
2018-06-27T06:17:15.312Z,21.67
2018-06-27T06:19:44.927Z,22.27
2018-06-27T06:22:14.555Z,22.75
2018-06-27T06:24:45.279Z,22.91
2018-06-27T06:27:15.647Z,23.08
2018-06-27T06:29:45.951Z,22.91
2018-06-27T06:32:15.995Z,22.88
2018-06-27T06:34:45.668Z,23.22
2018-06-27T06:37:15.434Z,23.68
2018-06-27T06:39:45.034Z,23.53
2018-06-27T06:42:15.008Z,23.50
2018-06-27T06:44:44.852Z,23.52
2018-06-27T06:47:14.619Z,23.95
2018-06-27T06:49:44.353Z,23.83
2018-06-27T06:52:14.046Z,24.10
2018-06-27T06:54:43.798Z,24.21
2018-06-27T06:57:13.487Z,23.79
2018-06-27T06:59:44.188Z,23.41
2018-06-27T07:02:13.943Z,23.74
2018-06-27T07:04:43.785Z,24.20
2018-06-27T07:07:13.467Z,24.05
2018-06-27T07:09:43.125Z,24.66
2018-06-27T07:12:13.377Z,24.75
2018-06-27T07:14:43.463Z,24.94
2018-06-27T07:17:13.461Z,25.04
2018-06-27T07:19:43.320Z,25.36
2018-06-27T07:22:13.412Z,25.33
2018-06-27T07:24:44.328Z,25.31
2018-06-27T07:27:13.945Z,25.38
2018-06-27T07:29:50.326Z,25.39
2018-06-27T07:32:19.943Z,25.45
2018-06-27T07:34:49.646Z,25.12
2018-06-27T07:37:19.476Z,25.48
2018-06-27T07:39:49.133Z,25.09
2018-06-27T07:42:18.744Z,25.11
2018-06-27T07:44:48.346Z,25.06
2018-06-27T07:47:17.925Z,24.23
2018-06-27T07:49:47.887Z,23.96
2018-06-27T07:52:17.497Z,23.99
2018-06-27T07:54:47.114Z,24.00
2018-06-27T07:57:16.757Z,23.94
2018-06-27T07:59:47.230Z,23.97
2018-06-27T08:02:16.936Z,23.60
2018-06-27T08:04:46.604Z,23.43
2018-06-27T08:07:16.300Z,23.45
2018-06-27T08:09:45.965Z,23.16
2018-06-27T08:12:15.814Z,23.07
2018-06-27T08:17:21.951Z,23.39
2018-06-27T08:19:51.580Z,24.02
2018-06-27T08:22:21.430Z,24.32
2018-06-27T08:24:51.166Z,24.68
2018-06-27T08:27:20.943Z,25.15
2018-06-27T08:29:50.604Z,25.24
2018-06-27T08:34:54.974Z,25.17
2018-06-27T08:37:24.606Z,25.05
2018-06-27T08:39:54.276Z,24.66
2018-06-27T08:44:59.317Z,24.55
2018-06-27T08:47:29.166Z,24.29
2018-06-27T08:49:58.923Z,24.92
2018-06-27T08:52:34.740Z,25.62
2018-06-27T08:55:04.516Z,25.83
2018-06-27T08:57:34.290Z,25.68
2018-06-27T09:00:05.091Z,25.97
2018-06-27T09:02:34.806Z,25.77
2018-06-27T09:05:10.801Z,26.05
2018-06-27T09:07:40.630Z,25.72
2018-06-27T09:10:10.317Z,25.84
2018-06-27T09:12:40.105Z,25.84
2018-06-27T09:15:09.784Z,25.10
2018-06-27T09:17:39.357Z,24.63
2018-06-27T09:20:08.954Z,24.81
2018-06-27T09:22:38.505Z,24.82
2018-06-27T09:25:08.108Z,24.69
2018-06-27T09:27:38.716Z,24.46
2018-06-27T09:30:08.346Z,24.51
2018-06-27T09:32:37.944Z,24.33
2018-06-27T09:35:07.821Z,24.63
2018-06-27T09:37:37.392Z,25.04
2018-06-27T09:40:06.980Z,25.23
2018-06-27T09:42:36.571Z,25.47
2018-06-27T09:45:06.196Z,25.37
2018-06-27T09:47:37.391Z,24.97
2018-06-27T09:50:07.193Z,24.77
2018-06-27T09:52:36.920Z,24.70
2018-06-27T09:55:06.523Z,24.84
2018-06-27T09:57:36.215Z,25.15
2018-06-27T10:00:06.032Z,24.77
2018-06-27T10:02:35.800Z,24.41
2018-06-27T10:05:05.537Z,24.58
2018-06-27T10:07:35.254Z,25.17
2018-06-27T10:10:04.845Z,25.62
2018-06-27T10:12:34.542Z,25.58
2018-06-27T10:15:04.209Z,25.16
2018-06-27T10:17:33.885Z,24.89
2018-06-27T10:20:03.554Z,24.77
2018-06-27T10:22:33.560Z,24.42
2018-06-27T10:25:03.228Z,24.17
2018-06-27T10:27:32.800Z,24.44
2018-06-27T10:30:02.411Z,24.42
2018-06-27T10:32:32.044Z,24.47
2018-06-27T10:35:01.965Z,25.16
2018-06-27T10:37:31.584Z,25.55
2018-06-27T10:40:01.267Z,25.83
2018-06-27T10:47:41.336Z,25.03
2018-06-27T10:50:11.004Z,25.12
2018-06-27T10:52:40.681Z,25.05
2018-06-27T10:55:15.723Z,25.18
2018-06-27T10:57:45.452Z,25.03
2018-06-27T11:00:15.136Z,25.03
2018-06-27T11:02:44.797Z,25.07
2018-06-27T11:05:14.498Z,25.04
2018-06-27T11:07:44.211Z,24.44
2018-06-27T11:10:13.952Z,24.32
2018-06-27T11:12:43.848Z,24.44
2018-06-27T11:15:14.078Z,23.99
2018-06-27T11:17:44.304Z,24.11
2018-06-27T11:20:14.260Z,24.42
2018-06-27T11:22:43.855Z,24.13
2018-06-27T11:25:13.669Z,24.53
2018-06-27T11:27:43.334Z,24.44
2018-06-27T11:30:13.554Z,24.76
2018-06-27T11:32:43.834Z,24.75
2018-06-27T11:35:13.541Z,25.10
2018-06-27T11:37:44.045Z,25.31
2018-06-27T11:40:13.727Z,25.21
2018-06-27T11:42:43.429Z,25.26
2018-06-27T11:45:13.211Z,25.41
2018-06-27T11:47:42.832Z,25.33
2018-06-27T11:50:12.579Z,24.92
2018-06-27T11:52:42.269Z,25.06
2018-06-27T11:55:12.464Z,24.98
2018-06-27T11:57:43.450Z,24.91
2018-06-27T12:00:13.072Z,24.85
2018-06-27T12:02:42.702Z,24.94
2018-06-27T12:05:12.372Z,24.57
2018-06-27T12:07:42.925Z,24.60
2018-06-27T12:10:14.753Z,24.87
2018-06-27T12:12:45.449Z,25.29
2018-06-27T12:15:15.720Z,25.29
2018-06-27T12:17:45.936Z,25.56
2018-06-27T12:20:16.355Z,25.89
2018-06-27T12:22:47.066Z,26.01
2018-06-27T12:25:16.705Z,26.11
2018-06-27T12:27:46.565Z,26.08
2018-06-27T12:30:21.996Z,26.10
2018-06-27T12:32:52.175Z,26.28
2018-06-27T12:35:23.376Z,25.88
2018-06-27T12:37:53.172Z,26.22
2018-06-27T12:40:22.810Z,26.48
2018-06-27T12:42:52.488Z,27.03
2018-06-27T12:45:22.095Z,27.53
2018-06-27T12:47:52.467Z,27.59
2018-06-27T12:50:22.190Z,27.72
2018-06-27T12:52:51.844Z,27.87
2018-06-27T12:55:21.440Z,27.82
2018-06-27T12:57:51.068Z,27.95
2018-06-27T13:00:20.717Z,28.21
2018-06-27T13:02:50.405Z,28.42
2018-06-27T13:05:20.023Z,28.41
2018-06-27T13:07:50.040Z,28.42
2018-06-27T13:10:19.698Z,28.65
2018-06-27T13:12:49.765Z,28.58
2018-06-27T13:15:19.905Z,28.75
2018-06-27T13:17:50.134Z,28.73
2018-06-27T13:20:21.042Z,29.19
2018-06-27T13:22:51.868Z,29.06
2018-06-27T13:25:22.170Z,28.01
2018-06-27T13:27:51.961Z,27.76
2018-06-27T13:30:22.652Z,27.36
2018-06-27T13:32:52.476Z,26.99
2018-06-27T13:35:22.098Z,26.45
2018-06-27T13:37:51.745Z,26.66
2018-06-27T13:40:21.310Z,26.80
2018-06-27T13:42:50.916Z,26.61
2018-06-27T13:45:20.502Z,26.80
2018-06-27T13:47:50.152Z,26.81
2018-06-27T13:50:19.924Z,26.80
2018-06-27T13:52:49.568Z,26.97
2018-06-27T13:55:19.257Z,27.61
2018-06-27T13:57:48.938Z,27.63
2018-06-27T14:00:19.937Z,27.56
2018-06-27T14:02:49.643Z,28.15
2018-06-27T14:05:19.793Z,28.52
2018-06-27T14:07:50.030Z,28.33
2018-06-27T14:10:19.666Z,28.71
2018-06-27T14:12:52.296Z,28.70
2018-06-27T14:15:21.941Z,27.94
2018-06-27T14:17:51.871Z,27.63
2018-06-27T14:20:23.016Z,27.56
2018-06-27T14:22:52.691Z,27.25
2018-06-27T14:25:22.379Z,26.99
2018-06-27T14:27:52.635Z,26.78
2018-06-27T14:30:22.601Z,26.92
2018-06-27T14:32:52.318Z,26.95
2018-06-27T14:35:21.959Z,26.95
2018-06-27T14:37:52.186Z,27.36
2018-06-27T14:40:22.950Z,27.03
2018-06-27T14:42:52.660Z,27.21
2018-06-27T14:45:22.296Z,27.53
2018-06-27T14:47:52.131Z,27.73
2018-06-27T14:50:22.016Z,27.41
2018-06-27T14:52:52.348Z,28.39
2018-06-27T14:55:22.050Z,29.24
2018-06-27T14:57:51.656Z,29.57
2018-06-27T15:00:21.318Z,29.61
2018-06-27T15:02:50.924Z,29.46
2018-06-27T15:05:20.506Z,29.21
2018-06-27T15:07:50.145Z,28.85
2018-06-27T15:10:19.800Z,28.32
2018-06-27T15:12:49.473Z,27.82
2018-06-27T15:15:19.065Z,27.90
2018-06-27T15:17:48.891Z,27.77
2018-06-27T15:20:18.600Z,27.54
2018-06-27T15:22:48.361Z,27.14
2018-06-27T15:25:17.972Z,26.78
2018-06-27T15:27:47.658Z,26.62
2018-06-27T15:30:17.326Z,26.10
2018-06-27T15:32:46.916Z,25.17
2018-06-27T15:35:16.658Z,25.41
2018-06-27T15:37:46.248Z,25.27
2018-06-27T15:40:15.942Z,25.02
2018-06-27T15:42:45.538Z,24.83
2018-06-27T15:45:15.186Z,24.70
2018-06-27T15:47:44.845Z,24.84
2018-06-27T15:50:21.407Z,25.30
2018-06-27T15:52:51.138Z,25.79
2018-06-27T15:55:21.028Z,26.11
2018-06-27T15:57:50.853Z,26.11
2018-06-27T16:00:20.505Z,26.13
2018-06-27T16:02:51.959Z,26.08
2018-06-27T16:05:21.713Z,26.19
2018-06-27T16:07:51.368Z,26.37
2018-06-27T16:10:21.072Z,26.60
2018-06-27T16:12:50.747Z,26.65
2018-06-27T16:15:20.341Z,26.76
2018-06-27T16:17:49.975Z,26.53
2018-06-27T16:20:19.652Z,26.64
2018-06-27T16:22:49.409Z,26.66
2018-06-27T16:25:19.116Z,26.49
2018-06-27T16:27:48.752Z,26.33
2018-06-27T16:30:18.489Z,26.16
2018-06-27T16:32:48.798Z,26.09
2018-06-27T16:35:19.417Z,26.05
2018-06-27T16:37:49.164Z,26.08
2018-06-27T16:40:18.871Z,25.88
2018-06-27T16:42:48.860Z,25.77
2018-06-27T16:45:18.518Z,25.29
2018-06-27T16:47:48.152Z,24.83
2018-06-27T16:50:17.821Z,25.29
2018-06-27T16:52:48.547Z,25.56
2018-06-27T16:55:18.127Z,25.60
2018-06-27T16:57:47.792Z,25.50
2018-06-27T17:00:17.456Z,25.75
2018-06-27T17:02:47.051Z,25.65
2018-06-27T17:05:16.690Z,25.38
2018-06-27T17:07:46.352Z,25.18
2018-06-27T17:10:15.925Z,25.06
2018-06-27T17:12:46.833Z,25.10
2018-06-27T17:15:16.376Z,25.24
2018-06-27T17:17:46.124Z,25.13
2018-06-27T17:20:15.844Z,25.10
2018-06-27T17:22:46.291Z,25.16
2018-06-27T17:25:15.909Z,24.86
2018-06-27T17:27:45.514Z,24.78
2018-06-27T17:30:15.583Z,25.00
2018-06-27T17:32:46.018Z,25.27
2018-06-27T17:35:15.712Z,25.63
2018-06-27T17:37:46.242Z,25.51
2018-06-27T17:40:16.521Z,25.59
2018-06-27T17:42:46.322Z,25.74
2018-06-27T17:45:16.044Z,25.49
2018-06-27T17:47:45.760Z,25.26
2018-06-27T17:53:07.142Z,25.38
2018-06-27T17:55:36.811Z,25.64
2018-06-27T17:58:06.373Z,25.37
2018-06-27T18:00:35.977Z,25.19
2018-06-27T18:03:05.839Z,25.41
2018-06-27T18:05:35.509Z,25.26
2018-06-27T18:08:05.547Z,24.92
2018-06-27T18:10:35.440Z,24.83
2018-06-27T18:13:05.114Z,24.75
2018-06-27T18:15:36.603Z,24.57
2018-06-27T18:18:06.570Z,24.67
2018-06-27T18:20:37.780Z,23.95
2018-06-27T18:23:08.215Z,24.20
2018-06-27T18:25:38.700Z,24.33
2018-06-27T18:28:12.036Z,24.47
2018-06-27T18:30:41.872Z,24.61
2018-06-27T18:33:11.519Z,24.45
2018-06-27T18:35:41.171Z,24.32
2018-06-27T18:38:12.374Z,24.23
2018-06-27T18:40:49.722Z,24.39
2018-06-27T18:43:21.293Z,24.11
2018-06-27T18:45:53.317Z,24.49
2018-06-27T18:48:22.951Z,24.71
2018-06-27T18:50:54.509Z,24.60
2018-06-27T18:53:24.126Z,24.40
2018-06-27T18:55:55.232Z,24.55
2018-06-27T18:58:25.265Z,24.65
2018-06-27T19:00:56.272Z,24.80
2018-06-27T19:03:28.285Z,24.85
2018-06-27T19:05:59.912Z,24.91
2018-06-27T19:08:30.050Z,24.27
2018-06-27T19:11:01.962Z,23.89
2018-06-27T19:13:32.429Z,23.98
2018-06-27T19:16:02.193Z,23.97
2018-06-27T19:18:31.830Z,24.10
2018-06-27T19:21:05.444Z,24.21
2018-06-27T19:23:35.703Z,23.88
2018-06-27T19:26:07.610Z,23.86
2018-06-27T19:28:39.024Z,23.59
2018-06-27T19:31:10.033Z,23.65
2018-06-27T19:33:41.122Z,23.73
2018-06-27T19:36:12.754Z,23.91
2018-06-27T19:38:43.804Z,23.81
2018-06-27T19:43:52.914Z,23.75
2018-06-27T19:46:23.395Z,23.84
2018-06-27T19:48:59.279Z,23.80
2018-06-27T19:51:30.265Z,23.86
2018-06-27T19:56:43.303Z,23.78
2018-06-27T19:59:13.752Z,23.57
2018-06-27T20:01:44.858Z,23.64
2018-06-27T20:04:15.048Z,23.86
2018-06-27T20:06:44.681Z,23.80
2018-06-27T20:09:14.422Z,23.70
2018-06-27T20:11:44.647Z,23.53
2018-06-27T20:14:15.830Z,23.34
2018-06-27T20:16:45.699Z,23.52
2018-06-27T20:19:15.481Z,23.22
2018-06-27T20:21:45.901Z,23.11
2018-06-27T20:24:15.547Z,23.12
2018-06-27T20:26:46.870Z,23.16
2018-06-27T20:29:16.577Z,23.14
2018-06-27T20:31:46.236Z,22.99
2018-06-27T20:34:15.883Z,22.92
2018-06-27T20:36:45.583Z,23.08
2018-06-27T20:39:15.229Z,23.14
2018-06-27T20:41:44.992Z,23.10
2018-06-27T20:44:14.652Z,22.80
2018-06-27T20:46:44.361Z,22.70
2018-06-27T20:49:14.166Z,22.69
2018-06-27T20:51:43.994Z,22.77
2018-06-27T20:56:42.952Z,22.93
2018-06-27T20:59:13.223Z,22.62
2018-06-27T21:01:43.209Z,22.47
2018-06-27T21:04:12.917Z,22.42
2018-06-27T21:06:43.105Z,22.21
2018-06-27T21:09:12.854Z,21.90
2018-06-27T21:11:43.102Z,21.92
2018-06-27T21:14:21.011Z,21.93
2018-06-27T21:16:53.047Z,21.97
2018-06-27T21:19:22.673Z,22.20
2018-06-27T21:21:52.261Z,22.02
2018-06-27T21:24:22.027Z,21.86
2018-06-27T21:26:51.780Z,21.65
2018-06-27T21:29:21.413Z,21.53
2018-06-27T21:31:51.084Z,21.60
2018-06-27T21:34:20.720Z,21.88
2018-06-27T21:36:50.733Z,21.97
2018-06-27T21:39:20.377Z,22.12
2018-06-27T21:41:50.014Z,21.89
2018-06-27T21:44:19.671Z,21.91
2018-06-27T21:46:49.327Z,21.66
2018-06-27T21:49:18.908Z,21.72
2018-06-27T21:51:48.508Z,21.65
2018-06-27T21:54:18.233Z,21.67
2018-06-27T21:56:48.100Z,21.72
2018-06-27T21:59:17.764Z,21.65
2018-06-27T22:01:47.337Z,21.55
2018-06-27T22:04:17.019Z,21.51
2018-06-27T22:06:46.594Z,21.63
2018-06-27T22:09:16.586Z,21.26
2018-06-27T22:11:46.175Z,21.29
2018-06-27T22:14:15.854Z,21.06
2018-06-27T22:16:45.554Z,20.99
2018-06-27T22:19:15.160Z,20.99
2018-06-27T22:21:44.892Z,20.83
2018-06-27T22:24:16.118Z,21.06
2018-06-27T22:26:45.784Z,20.67
2018-06-27T22:29:15.449Z,20.75
2018-06-27T22:31:45.904Z,20.91
2018-06-27T22:34:19.094Z,21.01
2018-06-27T22:36:48.816Z,21.11
2018-06-27T22:39:18.433Z,20.78
2018-06-27T22:41:48.093Z,20.79
2018-06-27T22:44:17.735Z,20.52
2018-06-27T22:46:54.179Z,20.15
2018-06-27T22:49:24.324Z,20.07
2018-06-27T22:51:54.120Z,20.18
2018-06-27T22:54:23.733Z,20.22
2018-06-27T22:56:53.383Z,20.34
2018-06-27T22:59:23.021Z,20.55
2018-06-27T23:01:52.681Z,20.35
2018-06-27T23:04:22.380Z,20.07
2018-06-27T23:06:52.083Z,19.95
2018-06-27T23:09:21.779Z,19.92
2018-06-27T23:11:51.468Z,19.99
2018-06-27T23:14:21.103Z,20.00
2018-06-27T23:16:50.787Z,20.25
2018-06-27T23:19:20.447Z,20.36
2018-06-27T23:21:50.107Z,20.08
2018-06-27T23:24:20.376Z,20.06
2018-06-27T23:26:50.995Z,19.77
2018-06-27T23:29:20.599Z,19.63
2018-06-27T23:31:51.492Z,19.56
2018-06-27T23:34:22.173Z,19.67
2018-06-27T23:36:53.108Z,19.81
2018-06-27T23:39:22.720Z,19.91
2018-06-27T23:41:52.922Z,19.63
2018-06-27T23:44:22.556Z,19.39
2018-06-27T23:46:53.089Z,19.34
2018-06-27T23:49:22.665Z,19.59
2018-06-27T23:51:53.148Z,19.41
2018-06-27T23:54:23.473Z,19.45
2018-06-27T23:56:53.080Z,19.07
2018-06-27T23:59:24.404Z,19.19
